sensor_id;sensor_type;location;lat;lon;timestamp;temperature;humidity
6988;DHT22;3534;49.960;8.018;2022-12-18T00:01:58;-0.50;99.90
6988;DHT22;3534;49.960;8.018;2022-12-18T00:04:26;-0.50;99.90
6988;DHT22;3534;49.960;8.018;2022-12-18T00:06:54;-0.50;99.90
6988;DHT22;3534;49.960;8.018;2022-12-18T00:09:21;-0.50;99.90
6988;DHT22;3534;49.960;8.018;2022-12-18T00:11:48;-0.50;99.90
6988;DHT22;3534;49.960;8.018;2022-12-18T00:14:14;-0.50;99.90
6988;DHT22;3534;49.960;8.018;2022-12-18T00:16:44;-0.50;99.90
6988;DHT22;3534;49.960;8.018;2022-12-18T00:19:11;-0.50;99.90
6988;DHT22;3534;49.960;8.018;2022-12-18T00:21:39;-0.50;99.90
6988;DHT22;3534;49.960;8.018;2022-12-18T00:24:07;-0.50;99.90
6988;DHT22;3534;49.960;8.018;2022-12-18T00:26:35;-0.50;99.90
6988;DHT22;3534;49.960;8.018;2022-12-18T00:29:05;-0.40;99.90
6988;DHT22;3534;49.960;8.018;2022-12-18T00:31:32;-0.40;99.90
6988;DHT22;3534;49.960;8.018;2022-12-18T00:33:59;-0.40;99.90
6988;DHT22;3534;49.960;8.018;2022-12-18T00:36:28;-0.40;99.90
6988;DHT22;3534;49.960;8.018;2022-12-18T00:38:56;-0.40;99.90
6988;DHT22;3534;49.960;8.018;2022-12-18T00:41:25;-0.40;99.90
6988;DHT22;3534;49.960;8.018;2022-12-18T00:44:11;-0.40;99.90
6988;DHT22;3534;49.960;8.018;2022-12-18T00:46:38;-0.40;99.90
6988;DHT22;3534;49.960;8.018;2022-12-18T00:49:05;-0.40;99.90
6988;DHT22;3534;49.960;8.018;2022-12-18T00:51:31;-0.40;99.90
6988;DHT22;3534;49.960;8.018;2022-12-18T00:53:58;-0.50;99.90
6988;DHT22;3534;49.960;8.018;2022-12-18T00:56:26;-0.50;99.90
6988;DHT22;3534;49.960;8.018;2022-12-18T00:58:53;-0.50;99.90
6988;DHT22;3534;49.960;8.018;2022-12-18T01:01:20;-0.50;99.90
6988;DHT22;3534;49.960;8.018;2022-12-18T01:03:46;-0.50;99.90
6988;DHT22;3534;49.960;8.018;2022-12-18T01:06:14;-0.50;99.90
6988;DHT22;3534;49.960;8.018;2022-12-18T01:08:42;-0.60;99.90
6988;DHT22;3534;49.960;8.018;2022-12-18T01:11:10;-0.50;99.90
6988;DHT22;3534;49.960;8.018;2022-12-18T01:13:38;-0.50;99.90
6988;DHT22;3534;49.960;8.018;2022-12-18T01:16:05;-0.50;99.90
6988;DHT22;3534;49.960;8.018;2022-12-18T01:18:32;-0.50;99.90
6988;DHT22;3534;49.960;8.018;2022-12-18T01:20:59;-0.50;99.90
6988;DHT22;3534;49.960;8.018;2022-12-18T01:23:27;-0.50;99.90
6988;DHT22;3534;49.960;8.018;2022-12-18T01:25:53;-0.50;99.90
6988;DHT22;3534;49.960;8.018;2022-12-18T01:28:20;-0.50;99.90
6988;DHT22;3534;49.960;8.018;2022-12-18T01:30:48;-0.50;99.90
6988;DHT22;3534;49.960;8.018;2022-12-18T01:33:15;-0.50;99.90
6988;DHT22;3534;49.960;8.018;2022-12-18T01:35:42;-0.50;99.90
6988;DHT22;3534;49.960;8.018;2022-12-18T01:38:09;-0.50;99.90
6988;DHT22;3534;49.960;8.018;2022-12-18T01:40:36;-0.50;99.90
6988;DHT22;3534;49.960;8.018;2022-12-18T01:43:02;-0.50;99.90
6988;DHT22;3534;49.960;8.018;2022-12-18T01:45:30;-0.50;99.90
6988;DHT22;3534;49.960;8.018;2022-12-18T01:48:01;-0.60;99.90
6988;DHT22;3534;49.960;8.018;2022-12-18T01:50:32;-0.60;99.90
6988;DHT22;3534;49.960;8.018;2022-12-18T01:53:03;-0.60;99.90
6988;DHT22;3534;49.960;8.018;2022-12-18T01:55:36;-0.70;99.90
6988;DHT22;3534;49.960;8.018;2022-12-18T01:58:04;-0.70;99.90
6988;DHT22;3534;49.960;8.018;2022-12-18T02:00:31;-0.80;99.90
6988;DHT22;3534;49.960;8.018;2022-12-18T02:02:59;-0.80;99.90
6988;DHT22;3534;49.960;8.018;2022-12-18T02:05:34;-0.90;99.90
6988;DHT22;3534;49.960;8.018;2022-12-18T02:08:09;-0.90;99.90
6988;DHT22;3534;49.960;8.018;2022-12-18T02:10:42;-0.90;99.90
6988;DHT22;3534;49.960;8.018;2022-12-18T02:13:14;-0.80;99.90
6988;DHT22;3534;49.960;8.018;2022-12-18T02:15:48;-0.90;99.90
6988;DHT22;3534;49.960;8.018;2022-12-18T02:18:21;-0.90;99.90
6988;DHT22;3534;49.960;8.018;2022-12-18T02:20:55;-0.90;99.90
6988;DHT22;3534;49.960;8.018;2022-12-18T02:23:36;-0.90;99.90
6988;DHT22;3534;49.960;8.018;2022-12-18T02:26:15;-0.90;99.90
6988;DHT22;3534;49.960;8.018;2022-12-18T02:28:45;-0.90;99.90
6988;DHT22;3534;49.960;8.018;2022-12-18T02:31:15;-0.90;99.90
6988;DHT22;3534;49.960;8.018;2022-12-18T02:33:45;-1.10;99.90
6988;DHT22;3534;49.960;8.018;2022-12-18T02:36:12;-1.30;99.90
6988;DHT22;3534;49.960;8.018;2022-12-18T02:38:41;-1.60;99.90
6988;DHT22;3534;49.960;8.018;2022-12-18T02:41:08;-1.70;99.90
6988;DHT22;3534;49.960;8.018;2022-12-18T02:43:37;-1.80;99.90
6988;DHT22;3534;49.960;8.018;2022-12-18T02:46:24;-1.90;99.90
6988;DHT22;3534;49.960;8.018;2022-12-18T02:48:53;-1.90;99.90
6988;DHT22;3534;49.960;8.018;2022-12-18T02:51:27;-1.80;99.90
6988;DHT22;3534;49.960;8.018;2022-12-18T02:54:00;-1.80;99.90
6988;DHT22;3534;49.960;8.018;2022-12-18T02:56:36;-1.80;99.90
6988;DHT22;3534;49.960;8.018;2022-12-18T02:59:09;-1.80;99.90
6988;DHT22;3534;49.960;8.018;2022-12-18T03:01:42;-1.80;99.90
6988;DHT22;3534;49.960;8.018;2022-12-18T03:04:12;-1.90;99.90
6988;DHT22;3534;49.960;8.018;2022-12-18T03:06:45;-1.90;99.90
6988;DHT22;3534;49.960;8.018;2022-12-18T03:09:17;-1.90;99.90
6988;DHT22;3534;49.960;8.018;2022-12-18T03:11:49;-1.90;99.90
6988;DHT22;3534;49.960;8.018;2022-12-18T03:14:40;-1.90;99.90
6988;DHT22;3534;49.960;8.018;2022-12-18T03:17:10;-1.90;99.90
6988;DHT22;3534;49.960;8.018;2022-12-18T03:19:40;-2.10;99.90
6988;DHT22;3534;49.960;8.018;2022-12-18T03:22:08;-2.00;99.90
6988;DHT22;3534;49.960;8.018;2022-12-18T03:24:38;-2.00;99.90
6988;DHT22;3534;49.960;8.018;2022-12-18T03:27:07;-2.00;99.90
6988;DHT22;3534;49.960;8.018;2022-12-18T03:29:40;-2.00;99.90
6988;DHT22;3534;49.960;8.018;2022-12-18T03:32:12;-2.10;99.90
6988;DHT22;3534;49.960;8.018;2022-12-18T03:34:42;-2.10;99.90
6988;DHT22;3534;49.960;8.018;2022-12-18T03:37:10;-2.20;99.90
6988;DHT22;3534;49.960;8.018;2022-12-18T03:39:37;-2.20;99.90
6988;DHT22;3534;49.960;8.018;2022-12-18T03:42:07;-2.20;99.90
6988;DHT22;3534;49.960;8.018;2022-12-18T03:44:42;-2.20;99.90
6988;DHT22;3534;49.960;8.018;2022-12-18T03:47:14;-2.30;99.90
6988;DHT22;3534;49.960;8.018;2022-12-18T03:49:46;-2.40;99.90
6988;DHT22;3534;49.960;8.018;2022-12-18T03:52:17;-2.50;99.90
6988;DHT22;3534;49.960;8.018;2022-12-18T03:54:45;-2.60;99.90
6988;DHT22;3534;49.960;8.018;2022-12-18T03:57:16;-2.70;99.90
6988;DHT22;3534;49.960;8.018;2022-12-18T03:59:46;-2.90;99.90
6988;DHT22;3534;49.960;8.018;2022-12-18T04:02:15;-3.00;99.90
6988;DHT22;3534;49.960;8.018;2022-12-18T04:04:43;-3.00;99.90
6988;DHT22;3534;49.960;8.018;2022-12-18T04:07:12;-3.10;99.90
6988;DHT22;3534;49.960;8.018;2022-12-18T04:09:40;-3.20;99.90
6988;DHT22;3534;49.960;8.018;2022-12-18T04:12:08;-3.20;99.90
6988;DHT22;3534;49.960;8.018;2022-12-18T04:14:35;-3.20;99.90
6988;DHT22;3534;49.960;8.018;2022-12-18T04:17:03;-3.20;99.90
6988;DHT22;3534;49.960;8.018;2022-12-18T04:19:30;-3.20;99.90
6988;DHT22;3534;49.960;8.018;2022-12-18T04:21:57;-3.10;99.90
6988;DHT22;3534;49.960;8.018;2022-12-18T04:24:24;-3.10;99.90
6988;DHT22;3534;49.960;8.018;2022-12-18T04:26:51;-3.00;99.90
6988;DHT22;3534;49.960;8.018;2022-12-18T04:29:18;-3.00;99.90
6988;DHT22;3534;49.960;8.018;2022-12-18T04:31:44;-3.10;99.90
6988;DHT22;3534;49.960;8.018;2022-12-18T04:34:12;-3.10;99.90
6988;DHT22;3534;49.960;8.018;2022-12-18T04:36:39;-3.10;99.90
6988;DHT22;3534;49.960;8.018;2022-12-18T04:39:06;-3.00;99.90
6988;DHT22;3534;49.960;8.018;2022-12-18T04:41:32;-3.00;99.90
6988;DHT22;3534;49.960;8.018;2022-12-18T04:43:59;-3.10;99.90
6988;DHT22;3534;49.960;8.018;2022-12-18T04:46:26;-3.10;99.90
6988;DHT22;3534;49.960;8.018;2022-12-18T04:48:52;-3.20;99.90
6988;DHT22;3534;49.960;8.018;2022-12-18T04:51:20;-3.20;99.90
6988;DHT22;3534;49.960;8.018;2022-12-18T04:53:47;-3.30;99.90
6988;DHT22;3534;49.960;8.018;2022-12-18T04:56:15;-3.30;99.90
6988;DHT22;3534;49.960;8.018;2022-12-18T04:58:43;-3.40;99.90
6988;DHT22;3534;49.960;8.018;2022-12-18T05:01:13;-3.50;99.90
6988;DHT22;3534;49.960;8.018;2022-12-18T05:03:40;-3.40;99.90
6988;DHT22;3534;49.960;8.018;2022-12-18T05:06:07;-3.50;99.90
6988;DHT22;3534;49.960;8.018;2022-12-18T05:08:35;-3.50;99.90
6988;DHT22;3534;49.960;8.018;2022-12-18T05:11:04;-3.50;99.90
6988;DHT22;3534;49.960;8.018;2022-12-18T05:13:31;-3.60;99.90
6988;DHT22;3534;49.960;8.018;2022-12-18T05:15:59;-3.70;99.90
6988;DHT22;3534;49.960;8.018;2022-12-18T05:18:26;-3.80;99.90
6988;DHT22;3534;49.960;8.018;2022-12-18T05:20:54;-3.80;99.90
6988;DHT22;3534;49.960;8.018;2022-12-18T05:23:22;-3.80;99.90
6988;DHT22;3534;49.960;8.018;2022-12-18T05:25:53;-3.80;99.90
6988;DHT22;3534;49.960;8.018;2022-12-18T05:28:20;-3.80;99.90
6988;DHT22;3534;49.960;8.018;2022-12-18T05:30:49;-3.80;99.90
6988;DHT22;3534;49.960;8.018;2022-12-18T05:33:16;-3.80;99.90
6988;DHT22;3534;49.960;8.018;2022-12-18T05:35:43;-3.80;99.90
6988;DHT22;3534;49.960;8.018;2022-12-18T05:38:10;-3.70;99.90
6988;DHT22;3534;49.960;8.018;2022-12-18T05:40:36;-3.70;99.90
6988;DHT22;3534;49.960;8.018;2022-12-18T05:43:04;-3.70;99.90
6988;DHT22;3534;49.960;8.018;2022-12-18T05:45:31;-3.70;99.90
6988;DHT22;3534;49.960;8.018;2022-12-18T05:47:58;-3.70;99.90
6988;DHT22;3534;49.960;8.018;2022-12-18T05:50:24;-3.80;99.90
6988;DHT22;3534;49.960;8.018;2022-12-18T05:52:51;-3.80;99.90
6988;DHT22;3534;49.960;8.018;2022-12-18T05:55:18;-3.90;99.90
6988;DHT22;3534;49.960;8.018;2022-12-18T05:57:44;-4.00;99.90
6988;DHT22;3534;49.960;8.018;2022-12-18T06:00:14;-4.00;99.90
6988;DHT22;3534;49.960;8.018;2022-12-18T06:02:41;-4.10;99.90
6988;DHT22;3534;49.960;8.018;2022-12-18T06:05:07;-4.20;99.90
6988;DHT22;3534;49.960;8.018;2022-12-18T06:07:34;-4.20;99.90
6988;DHT22;3534;49.960;8.018;2022-12-18T06:10:01;-4.30;99.90
6988;DHT22;3534;49.960;8.018;2022-12-18T06:12:27;-4.30;99.90
6988;DHT22;3534;49.960;8.018;2022-12-18T06:14:54;-4.30;99.90
6988;DHT22;3534;49.960;8.018;2022-12-18T06:17:22;-4.30;99.90
6988;DHT22;3534;49.960;8.018;2022-12-18T06:19:49;-4.20;99.90
6988;DHT22;3534;49.960;8.018;2022-12-18T06:22:16;-4.30;99.90
6988;DHT22;3534;49.960;8.018;2022-12-18T06:24:42;-4.30;99.90
6988;DHT22;3534;49.960;8.018;2022-12-18T06:27:09;-4.30;99.90
6988;DHT22;3534;49.960;8.018;2022-12-18T06:29:36;-4.20;99.90
6988;DHT22;3534;49.960;8.018;2022-12-18T06:32:03;-4.10;99.90
6988;DHT22;3534;49.960;8.018;2022-12-18T06:34:31;-4.10;99.90
6988;DHT22;3534;49.960;8.018;2022-12-18T06:36:58;-4.10;99.90
6988;DHT22;3534;49.960;8.018;2022-12-18T06:39:26;-4.10;99.90
6988;DHT22;3534;49.960;8.018;2022-12-18T06:41:53;-4.10;99.90
6988;DHT22;3534;49.960;8.018;2022-12-18T06:44:20;-4.10;99.90
6988;DHT22;3534;49.960;8.018;2022-12-18T06:46:46;-4.10;99.90
6988;DHT22;3534;49.960;8.018;2022-12-18T06:49:13;-4.10;99.90
6988;DHT22;3534;49.960;8.018;2022-12-18T06:51:42;-4.10;99.90
6988;DHT22;3534;49.960;8.018;2022-12-18T06:54:09;-4.10;99.90
6988;DHT22;3534;49.960;8.018;2022-12-18T06:56:36;-4.10;99.90
6988;DHT22;3534;49.960;8.018;2022-12-18T06:59:02;-4.00;99.90
6988;DHT22;3534;49.960;8.018;2022-12-18T07:01:29;-4.00;99.90
6988;DHT22;3534;49.960;8.018;2022-12-18T07:03:56;-4.00;99.90
6988;DHT22;3534;49.960;8.018;2022-12-18T07:06:25;-4.00;99.90
6988;DHT22;3534;49.960;8.018;2022-12-18T07:08:54;-3.90;99.90
6988;DHT22;3534;49.960;8.018;2022-12-18T07:11:21;-3.90;99.90
6988;DHT22;3534;49.960;8.018;2022-12-18T07:13:47;-3.80;99.90
6988;DHT22;3534;49.960;8.018;2022-12-18T07:16:16;-3.80;99.90
6988;DHT22;3534;49.960;8.018;2022-12-18T07:18:43;-3.80;99.90
6988;DHT22;3534;49.960;8.018;2022-12-18T07:21:11;-3.80;99.90
6988;DHT22;3534;49.960;8.018;2022-12-18T07:23:38;-3.80;99.90
6988;DHT22;3534;49.960;8.018;2022-12-18T07:26:08;-3.70;99.90
6988;DHT22;3534;49.960;8.018;2022-12-18T07:28:35;-3.70;99.90
6988;DHT22;3534;49.960;8.018;2022-12-18T07:31:02;-3.60;99.90
6988;DHT22;3534;49.960;8.018;2022-12-18T07:33:29;-3.60;99.90
6988;DHT22;3534;49.960;8.018;2022-12-18T07:35:56;-3.70;99.90
6988;DHT22;3534;49.960;8.018;2022-12-18T07:38:22;-3.70;99.90
6988;DHT22;3534;49.960;8.018;2022-12-18T07:40:49;-3.80;99.90
6988;DHT22;3534;49.960;8.018;2022-12-18T07:43:17;-3.70;99.90
6988;DHT22;3534;49.960;8.018;2022-12-18T07:45:44;-3.70;99.90
6988;DHT22;3534;49.960;8.018;2022-12-18T07:48:10;-3.80;99.90
6988;DHT22;3534;49.960;8.018;2022-12-18T07:50:37;-4.00;99.90
6988;DHT22;3534;49.960;8.018;2022-12-18T07:53:04;-4.30;99.90
6988;DHT22;3534;49.960;8.018;2022-12-18T07:55:31;-4.40;99.90
6988;DHT22;3534;49.960;8.018;2022-12-18T07:58:01;-4.60;99.90
6988;DHT22;3534;49.960;8.018;2022-12-18T08:00:29;-4.80;99.90
6988;DHT22;3534;49.960;8.018;2022-12-18T08:02:56;-4.90;99.90
6988;DHT22;3534;49.960;8.018;2022-12-18T08:05:23;-4.90;99.90
6988;DHT22;3534;49.960;8.018;2022-12-18T08:07:50;-5.10;99.90
6988;DHT22;3534;49.960;8.018;2022-12-18T08:10:17;-5.10;99.90
6988;DHT22;3534;49.960;8.018;2022-12-18T08:12:43;-5.10;99.90
6988;DHT22;3534;49.960;8.018;2022-12-18T08:15:10;-5.00;99.90
6988;DHT22;3534;49.960;8.018;2022-12-18T08:17:38;-4.90;99.90
6988;DHT22;3534;49.960;8.018;2022-12-18T08:20:06;-4.80;99.90
6988;DHT22;3534;49.960;8.018;2022-12-18T08:22:34;-4.60;99.90
6988;DHT22;3534;49.960;8.018;2022-12-18T08:25:05;-4.50;99.90
6988;DHT22;3534;49.960;8.018;2022-12-18T08:27:32;-4.50;99.90
6988;DHT22;3534;49.960;8.018;2022-12-18T08:29:59;-4.70;99.90
6988;DHT22;3534;49.960;8.018;2022-12-18T08:32:27;-4.90;99.90
6988;DHT22;3534;49.960;8.018;2022-12-18T08:34:55;-5.10;99.90
6988;DHT22;3534;49.960;8.018;2022-12-18T08:37:22;-5.30;99.90
6988;DHT22;3534;49.960;8.018;2022-12-18T08:39:48;-5.30;99.90
6988;DHT22;3534;49.960;8.018;2022-12-18T08:42:15;-5.20;99.90
6988;DHT22;3534;49.960;8.018;2022-12-18T08:44:59;-5.00;99.90
6988;DHT22;3534;49.960;8.018;2022-12-18T08:47:26;-4.70;99.90
6988;DHT22;3534;49.960;8.018;2022-12-18T08:49:52;-4.50;99.90
6988;DHT22;3534;49.960;8.018;2022-12-18T08:52:20;-4.30;99.90
6988;DHT22;3534;49.960;8.018;2022-12-18T08:54:47;-4.20;99.90
6988;DHT22;3534;49.960;8.018;2022-12-18T08:57:14;-4.00;99.90
6988;DHT22;3534;49.960;8.018;2022-12-18T08:59:41;-3.90;99.90
6988;DHT22;3534;49.960;8.018;2022-12-18T09:02:10;-3.80;99.90
6988;DHT22;3534;49.960;8.018;2022-12-18T09:04:37;-3.70;99.90
6988;DHT22;3534;49.960;8.018;2022-12-18T09:07:05;-3.50;99.90
6988;DHT22;3534;49.960;8.018;2022-12-18T09:09:33;-3.50;99.90
6988;DHT22;3534;49.960;8.018;2022-12-18T09:11:59;-3.40;99.90
6988;DHT22;3534;49.960;8.018;2022-12-18T09:14:26;-3.30;99.90
6988;DHT22;3534;49.960;8.018;2022-12-18T09:16:53;-3.60;99.90
6988;DHT22;3534;49.960;8.018;2022-12-18T09:19:20;-3.60;99.90
6988;DHT22;3534;49.960;8.018;2022-12-18T09:21:46;-3.60;99.90
6988;DHT22;3534;49.960;8.018;2022-12-18T09:24:14;-3.50;99.90
6988;DHT22;3534;49.960;8.018;2022-12-18T09:26:43;-3.50;99.90
6988;DHT22;3534;49.960;8.018;2022-12-18T09:29:09;-3.30;99.90
6988;DHT22;3534;49.960;8.018;2022-12-18T09:31:37;-3.10;99.90
6988;DHT22;3534;49.960;8.018;2022-12-18T09:34:04;-2.80;99.90
6988;DHT22;3534;49.960;8.018;2022-12-18T09:36:31;-2.70;99.90
6988;DHT22;3534;49.960;8.018;2022-12-18T09:38:58;-2.70;99.90
6988;DHT22;3534;49.960;8.018;2022-12-18T09:41:44;-2.60;99.90
6988;DHT22;3534;49.960;8.018;2022-12-18T09:44:19;-2.60;99.90
6988;DHT22;3534;49.960;8.018;2022-12-18T09:46:50;-2.70;99.90
6988;DHT22;3534;49.960;8.018;2022-12-18T09:49:20;-2.70;99.90
6988;DHT22;3534;49.960;8.018;2022-12-18T09:51:52;-2.70;99.90
6988;DHT22;3534;49.960;8.018;2022-12-18T09:54:24;-2.60;99.90
6988;DHT22;3534;49.960;8.018;2022-12-18T09:56:53;-2.50;99.90
6988;DHT22;3534;49.960;8.018;2022-12-18T09:59:23;-2.40;99.90
6988;DHT22;3534;49.960;8.018;2022-12-18T10:01:51;-2.30;99.90
6988;DHT22;3534;49.960;8.018;2022-12-18T10:04:18;-2.30;99.90
6988;DHT22;3534;49.960;8.018;2022-12-18T10:06:51;-2.30;99.90
6988;DHT22;3534;49.960;8.018;2022-12-18T10:09:27;-2.10;99.90
6988;DHT22;3534;49.960;8.018;2022-12-18T10:12:02;-2.10;99.90
6988;DHT22;3534;49.960;8.018;2022-12-18T10:14:36;-2.10;99.90
6988;DHT22;3534;49.960;8.018;2022-12-18T10:17:14;-2.20;99.90
6988;DHT22;3534;49.960;8.018;2022-12-18T10:19:49;-2.20;99.90
6988;DHT22;3534;49.960;8.018;2022-12-18T10:22:38;-2.30;99.90
6988;DHT22;3534;49.960;8.018;2022-12-18T10:25:17;-2.20;99.90
6988;DHT22;3534;49.960;8.018;2022-12-18T10:27:47;-2.30;99.90
6988;DHT22;3534;49.960;8.018;2022-12-18T10:30:16;-2.60;99.90
6988;DHT22;3534;49.960;8.018;2022-12-18T10:32:43;-2.50;99.90
6988;DHT22;3534;49.960;8.018;2022-12-18T10:35:18;-2.50;99.90
6988;DHT22;3534;49.960;8.018;2022-12-18T10:38:02;-2.40;99.90
6988;DHT22;3534;49.960;8.018;2022-12-18T10:40:30;-2.40;99.90
6988;DHT22;3534;49.960;8.018;2022-12-18T10:43:11;-2.40;99.90
6988;DHT22;3534;49.960;8.018;2022-12-18T10:45:39;-2.20;99.90
6988;DHT22;3534;49.960;8.018;2022-12-18T10:48:18;-2.00;99.90
6988;DHT22;3534;49.960;8.018;2022-12-18T10:50:48;-1.90;99.90
6988;DHT22;3534;49.960;8.018;2022-12-18T10:53:20;-1.80;99.90
6988;DHT22;3534;49.960;8.018;2022-12-18T10:55:48;-1.90;99.90
6988;DHT22;3534;49.960;8.018;2022-12-18T10:58:24;-2.10;99.90
6988;DHT22;3534;49.960;8.018;2022-12-18T11:01:07;-2.30;99.90
6988;DHT22;3534;49.960;8.018;2022-12-18T11:03:37;-2.30;99.90
6988;DHT22;3534;49.960;8.018;2022-12-18T11:06:09;-2.10;99.90
6988;DHT22;3534;49.960;8.018;2022-12-18T11:08:36;-1.90;99.90
6988;DHT22;3534;49.960;8.018;2022-12-18T11:11:07;-1.80;99.90
6988;DHT22;3534;49.960;8.018;2022-12-18T11:13:35;-1.70;99.90
6988;DHT22;3534;49.960;8.018;2022-12-18T11:16:02;-2.00;99.90
6988;DHT22;3534;49.960;8.018;2022-12-18T11:18:30;-2.20;99.90
6988;DHT22;3534;49.960;8.018;2022-12-18T11:21:00;-2.10;99.90
6988;DHT22;3534;49.960;8.018;2022-12-18T11:23:28;-2.30;99.90
6988;DHT22;3534;49.960;8.018;2022-12-18T11:25:56;-2.30;99.90
6988;DHT22;3534;49.960;8.018;2022-12-18T11:28:37;-2.50;99.90
6988;DHT22;3534;49.960;8.018;2022-12-18T11:31:25;-2.30;99.90
6988;DHT22;3534;49.960;8.018;2022-12-18T11:34:05;-2.00;99.90
6988;DHT22;3534;49.960;8.018;2022-12-18T11:36:39;-1.80;99.90
6988;DHT22;3534;49.960;8.018;2022-12-18T11:39:13;-1.70;99.90
6988;DHT22;3534;49.960;8.018;2022-12-18T11:41:48;-1.50;99.90
6988;DHT22;3534;49.960;8.018;2022-12-18T11:44:40;-1.50;99.90
6988;DHT22;3534;49.960;8.018;2022-12-18T11:47:13;-2.00;99.90
6988;DHT22;3534;49.960;8.018;2022-12-18T11:49:42;-2.20;99.90
6988;DHT22;3534;49.960;8.018;2022-12-18T11:52:14;-2.40;99.90
6988;DHT22;3534;49.960;8.018;2022-12-18T11:54:42;-2.40;99.90
6988;DHT22;3534;49.960;8.018;2022-12-18T11:57:14;-2.30;99.90
6988;DHT22;3534;49.960;8.018;2022-12-18T11:59:53;-2.30;99.90
6988;DHT22;3534;49.960;8.018;2022-12-18T12:02:45;-2.30;99.90
6988;DHT22;3534;49.960;8.018;2022-12-18T12:05:20;-2.50;99.90
6988;DHT22;3534;49.960;8.018;2022-12-18T12:07:57;-2.50;99.90
6988;DHT22;3534;49.960;8.018;2022-12-18T12:10:38;-2.40;99.90
6988;DHT22;3534;49.960;8.018;2022-12-18T12:13:23;-2.30;99.90
6988;DHT22;3534;49.960;8.018;2022-12-18T12:16:03;-2.20;99.90
6988;DHT22;3534;49.960;8.018;2022-12-18T12:18:41;-2.10;99.90
6988;DHT22;3534;49.960;8.018;2022-12-18T12:21:14;-2.00;99.90
6988;DHT22;3534;49.960;8.018;2022-12-18T12:23:48;-1.70;99.90
6988;DHT22;3534;49.960;8.018;2022-12-18T12:26:23;-1.50;99.90
6988;DHT22;3534;49.960;8.018;2022-12-18T12:29:02;-1.20;99.90
6988;DHT22;3534;49.960;8.018;2022-12-18T12:31:47;-1.00;99.90
6988;DHT22;3534;49.960;8.018;2022-12-18T12:34:23;-0.80;99.90
6988;DHT22;3534;49.960;8.018;2022-12-18T12:37:03;-0.50;99.90
6988;DHT22;3534;49.960;8.018;2022-12-18T12:39:36;-0.30;99.90
6988;DHT22;3534;49.960;8.018;2022-12-18T12:42:04;-0.20;99.90
6988;DHT22;3534;49.960;8.018;2022-12-18T12:44:53;-0.10;99.90
6988;DHT22;3534;49.960;8.018;2022-12-18T12:47:26;0.10;99.90
6988;DHT22;3534;49.960;8.018;2022-12-18T12:49:55;0.20;99.90
6988;DHT22;3534;49.960;8.018;2022-12-18T12:52:29;0.20;99.90
6988;DHT22;3534;49.960;8.018;2022-12-18T12:54:58;0.30;99.90
6988;DHT22;3534;49.960;8.018;2022-12-18T12:57:31;0.30;99.90
6988;DHT22;3534;49.960;8.018;2022-12-18T13:00:04;0.40;99.90
6988;DHT22;3534;49.960;8.018;2022-12-18T13:05:06;0.60;99.90
6988;DHT22;3534;49.960;8.018;2022-12-18T13:07:39;0.70;99.90
6988;DHT22;3534;49.960;8.018;2022-12-18T13:10:32;0.70;99.90
6988;DHT22;3534;49.960;8.018;2022-12-18T13:13:01;0.70;99.90
6988;DHT22;3534;49.960;8.018;2022-12-18T13:15:37;0.80;99.90
6988;DHT22;3534;49.960;8.018;2022-12-18T13:18:17;0.80;99.90
6988;DHT22;3534;49.960;8.018;2022-12-18T13:20:47;0.90;99.90
6988;DHT22;3534;49.960;8.018;2022-12-18T13:23:33;1.00;99.90
6988;DHT22;3534;49.960;8.018;2022-12-18T13:26:29;1.00;99.90
6988;DHT22;3534;49.960;8.018;2022-12-18T13:29:00;1.00;99.90
6988;DHT22;3534;49.960;8.018;2022-12-18T13:31:58;1.00;99.90
6988;DHT22;3534;49.960;8.018;2022-12-18T13:34:28;1.10;99.90
6988;DHT22;3534;49.960;8.018;2022-12-18T13:43:24;1.20;99.90
6988;DHT22;3534;49.960;8.018;2022-12-18T13:49:00;1.10;99.90
6988;DHT22;3534;49.960;8.018;2022-12-18T13:51:28;1.20;99.90
6988;DHT22;3534;49.960;8.018;2022-12-18T13:54:00;1.20;99.90
6988;DHT22;3534;49.960;8.018;2022-12-18T13:56:30;1.20;99.90
6988;DHT22;3534;49.960;8.018;2022-12-18T13:59:19;1.20;99.90
6988;DHT22;3534;49.960;8.018;2022-12-18T14:01:48;1.30;99.90
6988;DHT22;3534;49.960;8.018;2022-12-18T14:04:21;1.30;99.90
6988;DHT22;3534;49.960;8.018;2022-12-18T14:06:51;1.40;99.90
6988;DHT22;3534;49.960;8.018;2022-12-18T14:09:24;1.30;99.90
6988;DHT22;3534;49.960;8.018;2022-12-18T14:11:52;1.40;99.90
6988;DHT22;3534;49.960;8.018;2022-12-18T14:14:41;1.40;99.90
6988;DHT22;3534;49.960;8.018;2022-12-18T14:17:09;1.50;99.90
6988;DHT22;3534;49.960;8.018;2022-12-18T14:19:36;1.40;99.90
6988;DHT22;3534;49.960;8.018;2022-12-18T14:22:03;1.30;99.90
6988;DHT22;3534;49.960;8.018;2022-12-18T14:24:32;1.20;99.90
6988;DHT22;3534;49.960;8.018;2022-12-18T14:27:13;1.20;99.90
6988;DHT22;3534;49.960;8.018;2022-12-18T14:29:46;1.20;99.90
6988;DHT22;3534;49.960;8.018;2022-12-18T14:32:14;1.20;99.90
6988;DHT22;3534;49.960;8.018;2022-12-18T14:34:42;1.20;99.90
6988;DHT22;3534;49.960;8.018;2022-12-18T14:37:10;1.20;99.90
6988;DHT22;3534;49.960;8.018;2022-12-18T14:39:38;1.20;99.90
6988;DHT22;3534;49.960;8.018;2022-12-18T14:42:05;1.10;99.90
6988;DHT22;3534;49.960;8.018;2022-12-18T14:44:32;1.10;99.90
6988;DHT22;3534;49.960;8.018;2022-12-18T14:46:59;1.20;99.90
6988;DHT22;3534;49.960;8.018;2022-12-18T14:49:30;1.20;99.90
6988;DHT22;3534;49.960;8.018;2022-12-18T14:51:59;1.10;99.90
6988;DHT22;3534;49.960;8.018;2022-12-18T14:54:27;1.10;99.90
6988;DHT22;3534;49.960;8.018;2022-12-18T14:57:00;1.10;99.90
6988;DHT22;3534;49.960;8.018;2022-12-18T14:59:28;1.10;99.90
6988;DHT22;3534;49.960;8.018;2022-12-18T15:01:59;1.10;99.90
6988;DHT22;3534;49.960;8.018;2022-12-18T15:04:29;1.10;99.90
6988;DHT22;3534;49.960;8.018;2022-12-18T15:07:12;1.20;99.90
6988;DHT22;3534;49.960;8.018;2022-12-18T15:09:41;1.20;99.90
6988;DHT22;3534;49.960;8.018;2022-12-18T15:12:22;1.40;99.90
6988;DHT22;3534;49.960;8.018;2022-12-18T15:14:51;1.30;99.90
6988;DHT22;3534;49.960;8.018;2022-12-18T15:17:19;1.30;99.90
6988;DHT22;3534;49.960;8.018;2022-12-18T15:19:48;1.30;99.90
6988;DHT22;3534;49.960;8.018;2022-12-18T15:22:22;1.20;99.90
6988;DHT22;3534;49.960;8.018;2022-12-18T15:24:50;1.20;99.90
6988;DHT22;3534;49.960;8.018;2022-12-18T15:27:30;1.10;99.90
6988;DHT22;3534;49.960;8.018;2022-12-18T15:30:23;1.10;99.90
6988;DHT22;3534;49.960;8.018;2022-12-18T15:32:51;1.10;99.90
6988;DHT22;3534;49.960;8.018;2022-12-18T15:35:22;1.20;99.90
6988;DHT22;3534;49.960;8.018;2022-12-18T15:37:51;1.10;99.90
6988;DHT22;3534;49.960;8.018;2022-12-18T15:40:20;1.10;99.90
6988;DHT22;3534;49.960;8.018;2022-12-18T15:42:50;1.10;99.90
6988;DHT22;3534;49.960;8.018;2022-12-18T15:45:36;1.00;99.90
6988;DHT22;3534;49.960;8.018;2022-12-18T15:48:09;1.00;99.90
6988;DHT22;3534;49.960;8.018;2022-12-18T15:50:37;1.00;99.90
6988;DHT22;3534;49.960;8.018;2022-12-18T15:53:03;1.00;99.90
6988;DHT22;3534;49.960;8.018;2022-12-18T15:55:30;1.00;99.90
6988;DHT22;3534;49.960;8.018;2022-12-18T15:58:16;1.00;99.90
6988;DHT22;3534;49.960;8.018;2022-12-18T16:00:42;1.00;99.90
6988;DHT22;3534;49.960;8.018;2022-12-18T16:03:09;1.00;99.90
6988;DHT22;3534;49.960;8.018;2022-12-18T16:05:36;0.90;99.90
6988;DHT22;3534;49.960;8.018;2022-12-18T16:08:03;0.90;99.90
6988;DHT22;3534;49.960;8.018;2022-12-18T16:10:30;0.90;99.90
6988;DHT22;3534;49.960;8.018;2022-12-18T16:12:57;0.90;99.90
6988;DHT22;3534;49.960;8.018;2022-12-18T16:15:25;0.90;99.90
6988;DHT22;3534;49.960;8.018;2022-12-18T16:17:51;0.90;99.90
6988;DHT22;3534;49.960;8.018;2022-12-18T16:20:20;0.90;99.90
6988;DHT22;3534;49.960;8.018;2022-12-18T16:22:48;0.90;99.90
6988;DHT22;3534;49.960;8.018;2022-12-18T16:25:18;0.90;99.90
6988;DHT22;3534;49.960;8.018;2022-12-18T16:27:45;0.90;99.90
6988;DHT22;3534;49.960;8.018;2022-12-18T16:30:14;0.90;99.90
6988;DHT22;3534;49.960;8.018;2022-12-18T16:32:42;0.80;99.90
6988;DHT22;3534;49.960;8.018;2022-12-18T16:35:10;0.80;99.90
6988;DHT22;3534;49.960;8.018;2022-12-18T16:37:37;0.80;99.90